Time;durP1;ratioP1;P1;durP2;ratioP2;P2;SDS_P1;SDS_P2;PMS_P1;PMS_P2;Temp;Humidity;BMP_temperature;BMP_pressure;BME280_temperature;BME280_humidity;BME280_pressure;Samples;Min_cycle;Max_cycle;Signal;HPM_P1;HPM_P2
2022/05/09 00:01:49;;;;;;;2.23;2.03;;;13.50;99.90;;;;;;5064515;28;20190;-50
2022/05/09 00:04:15;;;;;;;2.90;2.17;;;13.40;99.90;;;;;;5067838;28;20338;-53
2022/05/09 00:06:41;;;;;;;2.17;2.00;;;13.40;99.90;;;;;;5063915;28;20232;-54
2022/05/09 00:09:07;;;;;;;2.10;2.00;;;13.30;99.90;;;;;;5066950;28;20200;-48
2022/05/09 00:11:33;;;;;;;4.10;2.10;;;13.30;99.90;;;;;;5066232;28;20258;-48
2022/05/09 00:14:00;;;;;;;2.73;2.07;;;13.30;99.90;;;;;;5066026;28;20276;-55
2022/05/09 00:16:28;;;;;;;1.90;1.80;;;13.20;99.90;;;;;;5066980;28;20186;-51
2022/05/09 00:18:53;;;;;;;3.13;2.27;;;13.20;99.90;;;;;;5064916;28;20186;-45
2022/05/09 00:21:19;;;;;;;3.00;2.47;;;13.20;99.90;;;;;;5067491;28;20186;-53
2022/05/09 00:23:45;;;;;;;2.80;2.60;;;13.20;99.90;;;;;;5064555;28;20190;-55
2022/05/09 00:26:11;;;;;;;2.17;1.97;;;13.20;99.90;;;;;;5067965;28;20218;-55
2022/05/09 00:28:37;;;;;;;2.67;2.47;;;13.20;99.90;;;;;;5065286;28;20228;-56
2022/05/09 00:31:04;;;;;;;2.40;2.20;;;13.20;99.90;;;;;;5065994;28;20204;-53
2022/05/09 00:33:31;;;;;;;2.20;2.00;;;13.20;99.90;;;;;;5066489;28;20225;-52
2022/05/09 00:35:56;;;;;;;2.30;2.17;;;13.10;99.90;;;;;;5064403;28;20193;-50
2022/05/09 00:38:22;;;;;;;1.93;1.83;;;13.10;99.90;;;;;;5067419;28;20189;-49
2022/05/09 00:43:46;;;;;;;1.97;1.80;;;13.10;99.90;;;;;;4985940;28;20238;-52
2022/05/09 00:46:12;;;;;;;2.10;2.00;;;13.00;99.90;;;;;;4985880;28;20283;-48
2022/05/09 00:48:37;;;;;;;2.47;2.30;;;12.90;99.90;;;;;;4985336;28;20248;-45
2022/05/09 00:51:06;;;;;;;2.60;2.40;;;12.80;99.90;;;;;;4986557;28;20184;-49
2022/05/09 00:53:34;;;;;;;2.23;1.80;;;12.80;99.90;;;;;;4983939;28;20223;-49
2022/05/09 00:56:05;;;;;;;2.53;2.33;;;12.70;99.90;;;;;;4987513;28;20199;-45
2022/05/09 00:58:42;;;;;;;2.37;2.17;;;12.60;99.90;;;;;;4984140;28;20185;-48
2022/05/09 01:01:11;;;;;;;2.83;2.63;;;12.60;99.90;;;;;;4985760;28;20200;-46
2022/05/09 01:03:43;;;;;;;2.60;2.40;;;12.60;99.90;;;;;;4985866;28;20564;-50
2022/05/09 01:06:10;;;;;;;2.43;2.30;;;12.50;99.90;;;;;;4987798;28;20314;-50
2022/05/09 01:08:36;;;;;;;2.63;2.53;;;12.40;99.90;;;;;;4990509;28;20204;-50
2022/05/09 01:11:04;;;;;;;3.47;2.70;;;12.40;99.90;;;;;;4987533;28;20197;-51
2022/05/09 01:13:35;;;;;;;2.67;2.47;;;12.30;99.90;;;;;;4990852;28;20242;-44
2022/05/09 01:16:04;;;;;;;2.73;2.03;;;12.20;99.90;;;;;;4988083;28;20196;-53
2022/05/09 01:18:30;;;;;;;4.07;2.83;;;12.10;99.90;;;;;;5000389;28;20233;-48
2022/05/09 01:20:56;;;;;;;3.27;2.43;;;12.10;99.90;;;;;;5069443;28;20220;-46
2022/05/09 01:23:22;;;;;;;2.97;2.47;;;12.00;99.90;;;;;;5067938;28;20189;-47
2022/05/09 01:25:48;;;;;;;2.20;1.97;;;12.00;99.90;;;;;;5070808;28;20189;-47
2022/05/09 01:28:14;;;;;;;2.60;2.20;;;12.00;99.90;;;;;;5067228;28;20233;-49
2022/05/09 01:31:02;;;;;;;3.50;2.60;;;11.90;99.90;;;;;;5070658;28;20194;-47
2022/05/09 01:33:38;;;;;;;2.80;2.60;;;11.90;99.90;;;;;;5068559;28;20186;-49
2022/05/09 01:36:15;;;;;;;2.73;2.53;;;11.90;99.90;;;;;;5068622;28;20193;-54
2022/05/09 01:39:03;;;;;;;3.03;2.60;;;11.90;99.90;;;;;;5069919;28;20177;-52
2022/05/09 01:41:37;;;;;;;2.80;2.60;;;11.80;99.90;;;;;;5067713;28;20186;-47
2022/05/09 01:44:03;;;;;;;3.10;2.87;;;11.80;99.90;;;;;;5069811;28;20182;-50
2022/05/09 01:46:30;;;;;;;3.07;2.77;;;11.70;99.90;;;;;;5068780;28;20205;-54
2022/05/09 01:51:43;;;;;;;3.77;2.53;;;11.70;99.90;;;;;;5087117;28;20243;-55
2022/05/09 01:54:10;;;;;;;2.77;2.57;;;11.70;99.90;;;;;;5067244;28;20253;-44
2022/05/09 01:56:38;;;;;;;2.93;2.63;;;11.60;99.90;;;;;;5071304;28;20186;-47
2022/05/09 01:59:06;;;;;;;3.03;2.77;;;11.60;99.90;;;;;;5067408;28;20186;-55
2022/05/09 02:01:39;;;;;;;3.77;2.63;;;11.50;99.90;;;;;;5069161;28;20184;-48
2022/05/09 02:04:05;;;;;;;2.87;2.67;;;11.40;99.90;;;;;;5068870;28;20212;-55
2022/05/09 02:06:31;;;;;;;3.00;2.70;;;11.50;99.90;;;;;;5067663;28;20222;-50
2022/05/09 02:08:57;;;;;;;3.40;2.40;;;11.40;99.90;;;;;;5070055;28;20186;-55
2022/05/09 02:11:24;;;;;;;2.50;2.33;;;11.50;99.90;;;;;;5066720;28;20228;-53
2022/05/09 02:13:49;;;;;;;2.37;2.17;;;11.40;99.90;;;;;;5070175;28;20277;-49
2022/05/09 02:16:15;;;;;;;2.70;2.50;;;11.40;99.90;;;;;;5064974;28;20276;-50
2022/05/09 02:18:41;;;;;;;3.97;2.53;;;11.40;99.90;;;;;;5069425;28;20204;-44
2022/05/09 02:21:07;;;;;;;2.63;2.40;;;11.40;99.90;;;;;;5068350;28;20181;-48
2022/05/09 02:23:33;;;;;;;3.83;2.20;;;11.30;99.90;;;;;;5067973;28;20279;-48
2022/05/09 02:26:00;;;;;;;4.40;2.50;;;11.30;99.90;;;;;;5069965;28;20359;-51
2022/05/09 02:28:25;;;;;;;2.70;2.50;;;11.40;99.90;;;;;;5066932;28;20221;-49
2022/05/09 02:30:51;;;;;;;3.00;2.70;;;11.40;99.90;;;;;;5070127;28;20217;-48
2022/05/09 02:33:17;;;;;;;2.97;2.60;;;11.40;99.90;;;;;;5066484;28;20255;-55
2022/05/09 02:35:43;;;;;;;2.97;2.67;;;11.40;99.90;;;;;;5069495;28;20175;-52
2022/05/09 02:38:10;;;;;;;2.70;2.50;;;11.50;99.90;;;;;;5067363;28;20186;-54
2022/05/09 02:40:36;;;;;;;3.83;2.80;;;11.60;99.90;;;;;;5068024;28;20193;-54
2022/05/09 02:43:03;;;;;;;2.30;2.10;;;11.60;99.90;;;;;;5067625;28;20182;-51
2022/05/09 02:45:29;;;;;;;2.80;2.50;;;11.60;99.90;;;;;;5067158;28;20198;-48
2022/05/09 02:47:56;;;;;;;3.30;3.00;;;11.60;99.90;;;;;;5068985;28;20224;-47
2022/05/09 02:50:24;;;;;;;3.07;2.77;;;11.70;99.90;;;;;;5065908;28;20189;-50
2022/05/09 02:52:51;;;;;;;3.20;2.90;;;11.70;99.90;;;;;;5069468;28;20213;-47
2022/05/09 02:55:18;;;;;;;4.30;2.43;;;11.70;99.90;;;;;;5066708;28;20186;-50
2022/05/09 02:57:44;;;;;;;3.03;2.70;;;11.80;99.90;;;;;;5068229;28;20186;-50
2022/05/09 03:00:18;;;;;;;2.40;2.20;;;11.80;99.90;;;;;;5067908;28;20182;-48
2022/05/09 03:04:38;;;;;;;8.00;4.87;;;11.80;99.90;;;;;;5066359;28;20205;-46
2022/05/09 03:05:31;;;;;;;31.83;11.90;;;11.80;99.90;;;;;;5085759;28;20182;-45
2022/05/09 03:07:57;;;;;;;3.50;3.20;;;11.80;99.90;;;;;;5065914;28;20241;-49
2022/05/09 03:10:24;;;;;;;3.63;3.00;;;11.70;99.90;;;;;;5068349;28;20193;-53
2022/05/09 03:12:50;;;;;;;3.70;2.57;;;11.60;99.90;;;;;;5084055;28;20283;-53
2022/05/09 03:15:17;;;;;;;3.33;2.90;;;11.60;99.90;;;;;;5066644;28;20185;-49
2022/05/09 03:17:42;;;;;;;3.07;2.77;;;11.50;99.90;;;;;;5067988;28;20194;-54
2022/05/09 03:20:09;;;;;;;2.90;2.63;;;11.40;99.90;;;;;;5066264;28;20232;-48
2022/05/09 03:22:35;;;;;;;3.27;2.83;;;11.40;99.90;;;;;;5068507;28;20193;-50
2022/05/09 03:25:01;;;;;;;2.77;2.53;;;11.40;99.90;;;;;;5064663;28;20241;-50
2022/05/09 03:27:26;;;;;;;3.47;3.07;;;11.40;99.90;;;;;;5068692;28;20308;-50
2022/05/09 03:29:52;;;;;;;4.37;3.17;;;11.40;99.90;;;;;;5066021;28;20192;-54
2022/05/09 03:32:18;;;;;;;3.53;3.00;;;11.40;99.90;;;;;;5067289;28;20219;-54
2022/05/09 03:34:46;;;;;;;2.70;2.50;;;11.40;99.90;;;;;;5067002;28;20280;-52
2022/05/09 03:37:12;;;;;;;3.13;2.77;;;11.40;99.90;;;;;;5065649;28;20280;-54
2022/05/09 03:39:38;;;;;;;3.30;2.50;;;11.30;99.90;;;;;;5068268;28;20213;-53
2022/05/09 03:42:06;;;;;;;3.40;2.83;;;11.20;99.90;;;;;;5064929;28;20276;-54
2022/05/09 03:44:32;;;;;;;3.67;2.90;;;11.20;99.90;;;;;;5068583;28;20235;-52
2022/05/09 03:46:58;;;;;;;5.63;3.40;;;11.20;99.90;;;;;;5065220;28;20224;-54
2022/05/09 03:49:24;;;;;;;3.57;2.90;;;11.30;99.90;;;;;;5067480;28;20211;-54
2022/05/09 03:51:50;;;;;;;3.30;3.00;;;11.30;99.90;;;;;;5066705;28;20190;-51
2022/05/09 03:54:16;;;;;;;22.30;9.47;;;11.20;99.90;;;;;;5065892;28;20308;-49
2022/05/09 03:56:42;;;;;;;5.10;3.40;;;11.30;99.90;;;;;;5067862;28;20224;-50
2022/05/09 03:59:08;;;;;;;3.17;2.90;;;11.30;99.90;;;;;;5064826;28;20277;-44
2022/05/09 04:01:34;;;;;;;4.97;3.33;;;11.30;99.90;;;;;;5067980;28;20277;-49
2022/05/09 04:04:01;;;;;;;3.30;3.03;;;11.30;99.90;;;;;;5065062;28;20224;-50
2022/05/09 04:06:27;;;;;;;3.33;3.00;;;11.30;99.90;;;;;;5067167;28;20229;-45
2022/05/09 04:08:53;;;;;;;2.80;2.60;;;11.30;99.90;;;;;;5065798;28;20182;-49
2022/05/09 04:11:19;;;;;;;5.80;3.43;;;11.30;99.90;;;;;;5066273;28;20227;-49
2022/05/09 04:13:46;;;;;;;3.50;3.20;;;11.30;99.90;;;;;;5083256;28;20254;-49
2022/05/09 04:18:59;;;;;;;5.83;3.23;;;11.30;99.90;;;;;;5085257;28;20202;-51
2022/05/09 04:21:26;;;;;;;7.63;3.03;;;11.40;99.90;;;;;;5064498;28;20197;-48
2022/05/09 04:23:58;;;;;;;4.97;3.73;;;11.50;99.90;;;;;;5066986;28;20201;-48
2022/05/09 04:26:25;;;;;;;4.10;3.20;;;11.50;99.90;;;;;;5066420;28;20209;-50
2022/05/09 04:28:52;;;;;;;7.00;3.53;;;11.50;99.90;;;;;;5065029;28;20744;-49
2022/05/09 04:31:22;;;;;;;31.57;13.97;;;11.50;99.90;;;;;;5067300;28;20221;-54
2022/05/09 04:33:48;;;;;;;16.27;7.83;;;11.60;99.90;;;;;;5064133;28;20208;-51
2022/05/09 04:36:14;;;;;;;4.43;3.27;;;11.60;99.90;;;;;;5067988;28;20208;-49
2022/05/09 04:38:42;;;;;;;3.83;3.30;;;11.70;99.90;;;;;;5064552;28;20205;-48
2022/05/09 04:41:10;;;;;;;4.90;3.27;;;11.70;99.90;;;;;;5070948;28;20241;-52
2022/05/09 04:43:37;;;;;;;3.53;2.90;;;11.70;99.90;;;;;;5069865;28;20197;-53
2022/05/09 04:46:04;;;;;;;4.17;3.20;;;11.80;99.90;;;;;;5069970;28;20193;-49
2022/05/09 04:48:31;;;;;;;6.43;4.77;;;11.90;99.90;;;;;;5070894;28;20615;-51
2022/05/09 04:50:57;;;;;;;4.70;4.07;;;11.90;99.90;;;;;;5067990;28;20206;-53
2022/05/09 04:53:23;;;;;;;3.80;3.47;;;12.00;99.90;;;;;;5071581;28;20194;-50
2022/05/09 04:55:49;;;;;;;6.77;3.40;;;12.00;99.90;;;;;;5068035;28;20181;-56
2022/05/09 04:58:17;;;;;;;3.30;3.00;;;12.10;99.90;;;;;;5071889;28;20194;-53
2022/05/09 05:00:44;;;;;;;4.83;3.73;;;12.20;99.90;;;;;;5069500;28;20252;-53
2022/05/09 05:03:10;;;;;;;3.60;2.90;;;12.20;99.90;;;;;;5069445;28;20201;-48
2022/05/09 05:05:36;;;;;;;4.33;3.80;;;12.20;99.90;;;;;;5070439;28;20194;-56
2022/05/09 05:08:02;;;;;;;5.50;3.83;;;12.20;99.90;;;;;;5068740;28;20221;-52
2022/05/09 05:10:30;;;;;;;4.27;3.47;;;12.20;99.90;;;;;;5071508;28;20189;-52
2022/05/09 05:12:58;;;;;;;4.07;3.63;;;12.20;99.90;;;;;;5067505;28;20196;-57
2022/05/09 05:15:25;;;;;;;3.73;2.97;;;12.20;99.90;;;;;;5071074;28;20201;-48
2022/05/09 05:17:51;;;;;;;3.10;2.67;;;12.10;99.90;;;;;;5068341;28;20189;-53
2022/05/09 05:20:17;;;;;;;3.53;3.23;;;12.20;99.90;;;;;;5069513;28;20185;-47
2022/05/09 05:22:48;;;;;;;3.43;3.10;;;12.20;99.90;;;;;;5069483;28;20184;-51
2022/05/09 05:25:22;;;;;;;4.47;4.07;;;12.30;99.90;;;;;;5068188;28;20194;-51
2022/05/09 05:27:48;;;;;;;3.47;3.17;;;12.40;99.90;;;;;;5071125;28;20216;-48
2022/05/09 05:30:15;;;;;;;4.83;3.80;;;12.50;99.90;;;;;;5067182;28;20189;-54
2022/05/09 05:32:42;;;;;;;5.57;3.47;;;12.50;99.90;;;;;;5071100;28;20276;-48
2022/05/09 05:35:14;;;;;;;2.90;2.70;;;12.40;99.90;;;;;;5069177;28;20182;-53
2022/05/09 05:37:40;;;;;;;4.70;3.50;;;12.50;99.90;;;;;;5069916;28;20273;-54
2022/05/09 05:40:07;;;;;;;4.97;2.90;;;12.50;99.90;;;;;;5069701;28;20272;-56
2022/05/09 05:42:33;;;;;;;3.63;2.77;;;12.70;99.90;;;;;;5068614;28;20250;-53
2022/05/09 05:44:59;;;;;;;3.57;3.10;;;12.80;99.90;;;;;;5070613;28;20196;-55
2022/05/09 05:47:25;;;;;;;5.20;3.70;;;12.90;99.90;;;;;;5067639;28;20214;-52
2022/05/09 05:49:51;;;;;;;4.07;3.40;;;12.90;99.90;;;;;;5070341;28;20190;-51
2022/05/09 05:52:17;;;;;;;4.40;3.97;;;13.00;99.90;;;;;;5068364;28;20197;-54
2022/05/09 05:54:45;;;;;;;4.23;3.30;;;13.10;99.90;;;;;;5070009;28;20205;-51
2022/05/09 05:57:20;;;;;;;5.97;3.57;;;13.20;99.90;;;;;;5070107;28;20186;-50
2022/05/09 05:59:49;;;;;;;5.97;3.40;;;13.30;99.90;;;;;;5068358;28;20181;-56
2022/05/09 06:02:14;;;;;;;4.70;3.73;;;13.40;99.90;;;;;;5070158;28;20198;-51
2022/05/09 06:04:40;;;;;;;6.57;3.50;;;13.50;99.90;;;;;;5067352;28;20246;-49
2022/05/09 06:07:06;;;;;;;3.40;3.20;;;13.60;99.90;;;;;;5070136;28;20260;-54
2022/05/09 06:09:32;;;;;;;3.97;3.67;;;13.50;99.90;;;;;;5067899;28;20276;-50
2022/05/09 06:11:57;;;;;;;4.57;3.17;;;13.50;99.90;;;;;;5086454;28;20181;-48
2022/05/09 06:14:23;;;;;;;3.33;3.03;;;13.60;99.90;;;;;;5068825;28;20194;-53
2022/05/09 06:16:49;;;;;;;4.13;3.43;;;13.70;99.90;;;;;;5068043;28;20190;-52
2022/05/09 06:19:14;;;;;;;3.30;3.00;;;13.80;99.90;;;;;;5069138;28;20213;-50
2022/05/09 06:21:40;;;;;;;3.90;3.27;;;13.80;99.90;;;;;;5066104;28;20275;-48
2022/05/09 06:24:08;;;;;;;3.57;2.97;;;13.90;99.90;;;;;;5070043;28;20228;-50
2022/05/09 06:26:35;;;;;;;4.07;3.60;;;14.00;99.90;;;;;;5066189;28;20228;-54
2022/05/09 06:29:06;;;;;;;3.30;3.10;;;14.10;99.90;;;;;;5069926;28;20380;-48
2022/05/09 06:31:33;;;;;;;3.53;3.23;;;14.20;99.90;;;;;;5067890;28;20201;-56
2022/05/09 06:33:59;;;;;;;3.10;2.90;;;14.20;99.90;;;;;;5067933;28;20182;-49
2022/05/09 06:36:25;;;;;;;3.17;2.70;;;14.30;99.90;;;;;;5069048;28;20200;-53
2022/05/09 06:38:50;;;;;;;3.40;3.10;;;14.40;99.90;;;;;;5066780;28;20235;-54
2022/05/09 06:41:16;;;;;;;3.93;3.50;;;14.30;99.90;;;;;;5069556;28;20194;-54
2022/05/09 06:43:43;;;;;;;3.17;2.87;;;14.50;99.90;;;;;;5066297;28;20263;-56
2022/05/09 06:46:09;;;;;;;3.70;3.40;;;14.50;99.90;;;;;;5069531;28;20178;-52
2022/05/09 06:48:36;;;;;;;4.93;3.60;;;14.60;99.90;;;;;;5066725;28;20221;-52
2022/05/09 06:51:01;;;;;;;2.57;2.40;;;14.80;99.90;;;;;;5067930;28;20182;-50
2022/05/09 06:53:27;;;;;;;3.57;3.27;;;15.00;99.90;;;;;;5068120;28;20270;-46
2022/05/09 06:55:53;;;;;;;4.40;3.40;;;15.20;99.90;;;;;;5067152;28;20191;-49
2022/05/09 06:58:21;;;;;;;3.00;2.70;;;15.50;99.90;;;;;;5069282;28;20193;-54
2022/05/09 07:00:48;;;;;;;2.63;2.43;;;15.70;99.90;;;;;;5065660;28;20197;-54
2022/05/09 07:03:14;;;;;;;3.03;2.73;;;15.80;99.90;;;;;;5068876;28;20196;-52
2022/05/09 07:05:43;;;;;;;2.70;2.50;;;16.20;99.90;;;;;;5066382;28;20228;-51
2022/05/09 07:08:09;;;;;;;2.50;2.30;;;16.30;99.90;;;;;;5067795;28;20271;-54
2022/05/09 07:10:36;;;;;;;2.97;2.77;;;16.60;99.90;;;;;;5084508;28;20178;-50
2022/05/09 07:13:04;;;;;;;3.73;2.97;;;16.60;99.90;;;;;;5067131;28;20242;-50
2022/05/09 07:15:32;;;;;;;2.93;2.50;;;16.80;99.90;;;;;;5085132;28;20196;-56
2022/05/09 07:17:58;;;;;;;2.83;2.63;;;17.20;99.90;;;;;;5065397;28;20199;-54
2022/05/09 07:20:26;;;;;;;2.27;2.17;;;17.20;99.90;;;;;;5069445;28;20178;-53
2022/05/09 07:22:55;;;;;;;2.80;2.50;;;17.30;99.90;;;;;;5065389;28;20278;-49
2022/05/09 07:25:22;;;;;;;2.50;2.33;;;17.40;99.90;;;;;;5064248;28;20174;-51
2022/05/09 07:27:48;;;;;;;2.33;2.13;;;17.70;99.90;;;;;;5064405;28;20202;-53
2022/05/09 07:30:20;;;;;;;2.53;2.33;;;18.00;99.90;;;;;;5065356;28;20178;-49
2022/05/09 07:32:46;;;;;;;2.58;2.38;;;18.20;99.90;;;;;;5061822;28;20173;-55
2022/05/09 07:35:15;;;;;;;2.30;2.20;;;18.20;99.90;;;;;;5062479;28;20269;-56
2022/05/09 07:41:03;;;;;;;3.38;2.33;;;18.50;99.90;;;;;;5081665;28;20200;-57
2022/05/09 07:43:30;;;;;;;2.67;2.47;;;18.80;99.90;;;;;;5064382;28;20185;-56
2022/05/09 07:45:56;;;;;;;1.92;1.83;;;18.90;99.90;;;;;;5065053;28;20244;-57
2022/05/09 07:48:25;;;;;;;1.95;1.85;;;19.20;99.90;;;;;;5063662;28;20299;-54
2022/05/09 07:50:52;;;;;;;2.15;2.05;;;19.30;99.90;;;;;;5061622;28;20191;-49
2022/05/09 07:53:30;;;;;;;2.20;2.10;;;19.30;99.90;;;;;;5058604;28;20194;-53
2022/05/09 07:55:56;;;;;;;2.28;2.17;;;19.30;99.90;;;;;;5061938;28;20175;-55
2022/05/09 07:58:23;;;;;;;2.40;1.70;;;19.50;99.90;;;;;;5065919;28;20272;-50
2022/05/09 08:00:48;;;;;;;1.77;1.67;;;19.60;99.90;;;;;;5064211;28;20185;-54
2022/05/09 08:03:17;;;;;;;1.83;1.73;;;19.70;99.90;;;;;;5063115;28;20193;-53
2022/05/09 08:05:44;;;;;;;1.58;1.58;;;20.00;99.90;;;;;;5058819;28;20174;-55
2022/05/09 08:08:10;;;;;;;2.08;1.83;;;20.10;99.90;;;;;;5066452;28;20220;-54
2022/05/09 08:10:37;;;;;;;1.75;1.65;;;20.10;99.90;;;;;;5064564;28;20197;-54
2022/05/09 08:13:04;;;;;;;1.80;1.70;;;20.40;99.90;;;;;;5061981;28;20175;-46
2022/05/09 08:15:31;;;;;;;1.75;1.63;;;20.90;99.90;;;;;;5065344;28;20204;-54
2022/05/09 08:17:59;;;;;;;1.42;1.33;;;21.20;99.90;;;;;;5064607;28;20198;-54
2022/05/09 08:20:25;;;;;;;1.83;1.73;;;21.60;99.90;;;;;;5054508;28;20196;-48
2022/05/09 08:23:11;;;;;;;1.55;1.45;;;21.60;99.90;;;;;;5052371;28;20186;-49
2022/05/09 08:25:41;;;;;;;1.73;1.63;;;22.00;99.90;;;;;;5046647;28;20194;-51
2022/05/09 08:28:07;;;;;;;2.03;1.80;;;22.10;98.70;;;;;;5056381;28;20241;-52
2022/05/09 08:30:35;;;;;;;1.90;1.80;;;22.60;98.20;;;;;;5045330;28;20190;-49
2022/05/09 08:33:07;;;;;;;4.75;1.60;;;22.90;97.80;;;;;;5045917;28;20186;-55
2022/05/09 08:35:33;;;;;;;1.15;1.15;;;22.70;96.60;;;;;;5055890;28;20193;-53
2022/05/09 08:37:59;;;;;;;1.58;1.48;;;22.90;96.70;;;;;;5067062;28;20190;-56
2022/05/09 08:40:40;;;;;;;1.73;1.65;;;23.20;96.00;;;;;;5059556;28;20185;-51
2022/05/09 08:43:17;;;;;;;1.17;1.17;;;22.70;95.50;;;;;;5062107;28;20178;-55
2022/05/09 08:46:07;;;;;;;1.55;1.45;;;22.70;95.90;;;;;;5046673;28;20205;-55
2022/05/09 08:48:44;;;;;;;1.65;1.50;;;23.10;95.30;;;;;;5063190;28;20219;-54
2022/05/09 08:51:21;;;;;;;1.45;1.40;;;23.30;94.70;;;;;;5067432;28;20200;-50
2022/05/09 08:53:55;;;;;;;1.60;1.50;;;22.90;95.20;;;;;;5065089;28;20262;-57
2022/05/09 08:56:21;;;;;;;1.38;1.30;;;22.80;95.40;;;;;;5065066;28;20186;-47
2022/05/09 08:59:00;;;;;;;1.70;1.30;;;22.90;95.60;;;;;;5065868;28;20194;-50
2022/05/09 09:01:41;;;;;;;1.30;1.27;;;23.00;94.40;;;;;;5064238;28;20566;-48
2022/05/09 09:04:20;;;;;;;2.85;1.50;;;23.90;94.10;;;;;;5066887;28;20182;-45
2022/05/09 09:07:00;;;;;;;1.20;1.20;;;24.30;93.20;;;;;;5064490;28;20316;-52
2022/05/09 09:09:48;;;;;;;2.03;1.40;;;24.20;92.90;;;;;;5065239;28;20186;-52
2022/05/09 09:12:30;;;;;;;1.33;1.33;;;24.80;91.90;;;;;;5067299;28;20193;-47
2022/05/09 09:15:06;;;;;;;2.83;1.40;;;25.30;91.10;;;;;;5063939;28;20262;-54
2022/05/09 09:18:07;;;;;;;1.48;1.38;;;25.10;91.60;;;;;;5066382;28;20193;-53
2022/05/09 09:20:42;;;;;;;2.00;1.83;;;24.80;91.80;;;;;;5002085;28;20189;-51
2022/05/09 09:23:20;;;;;;;1.70;1.60;;;24.40;91.50;;;;;;4967167;28;20201;-45
2022/05/09 09:25:51;;;;;;;2.13;1.98;;;25.00;90.90;;;;;;4973021;28;20215;-54
2022/05/09 09:28:36;;;;;;;2.35;1.73;;;24.90;90.50;;;;;;4991574;28;20222;-55
2022/05/09 09:31:08;;;;;;;3.00;1.90;;;25.20;90.90;;;;;;5004189;28;20183;-53
2022/05/09 09:33:35;;;;;;;1.50;1.40;;;25.60;90.00;;;;;;5006769;28;20203;-52
2022/05/09 09:36:12;;;;;;;3.00;2.00;;;26.10;88.10;;;;;;4989530;28;20390;-53
2022/05/09 09:38:45;;;;;;;2.22;2.13;;;26.80;86.30;;;;;;5003423;28;20207;-48
2022/05/09 09:41:23;;;;;;;2.30;2.10;;;26.60;85.60;;;;;;5002729;28;20180;-54
2022/05/09 09:43:58;;;;;;;1.77;1.75;;;26.40;84.60;;;;;;4987953;28;20179;-52
2022/05/09 09:46:24;;;;;;;1.80;1.70;;;27.00;83.30;;;;;;4991475;28;20278;-50
2022/05/09 09:49:07;;;;;;;2.30;2.10;;;27.20;84.10;;;;;;5003689;28;20265;-57
2022/05/09 09:51:47;;;;;;;2.90;2.10;;;28.00;83.00;;;;;;4989928;28;20197;-56
2022/05/09 09:54:19;;;;;;;1.65;1.55;;;28.20;79.50;;;;;;5012924;28;20190;-52
2022/05/09 09:56:45;;;;;;;1.77;1.67;;;28.40;80.80;;;;;;5073876;28;20269;-50
2022/05/09 09:59:14;;;;;;;1.67;1.67;;;28.30;80.40;;;;;;5068884;28;20261;-46
2022/05/09 10:01:40;;;;;;;1.60;1.50;;;28.00;80.00;;;;;;5068039;28;20234;-54
2022/05/09 10:04:23;;;;;;;2.35;1.77;;;28.40;77.50;;;;;;5070540;28;20205;-50
2022/05/09 10:07:01;;;;;;;2.05;1.95;;;28.20;78.00;;;;;;5067266;28;20278;-52
2022/05/09 10:09:29;;;;;;;1.80;1.70;;;28.50;76.70;;;;;;5065143;28;20186;-52
2022/05/09 10:12:22;;;;;;;1.95;1.83;;;29.10;75.00;;;;;;5064589;28;20194;-50
2022/05/09 10:14:50;;;;;;;1.75;1.65;;;28.90;76.40;;;;;;5067565;28;20268;-52
2022/05/09 10:17:26;;;;;;;2.22;2.00;;;29.40;76.50;;;;;;5069520;28;20312;-50
2022/05/09 10:19:54;;;;;;;2.55;2.00;;;30.80;72.50;;;;;;5066747;28;20217;-54
2022/05/09 10:25:18;;;;;;;2.25;2.15;;;29.60;72.50;;;;;;5085828;28;20190;-52
2022/05/09 10:27:45;;;;;;;2.13;2.03;;;29.10;72.10;;;;;;5067521;28;20182;-53
2022/05/09 10:30:14;;;;;;;1.60;1.50;;;30.10;70.90;;;;;;5065767;28;20179;-52
2022/05/09 10:33:14;;;;;;;1.85;1.65;;;30.30;69.80;;;;;;5063515;28;20235;-51
2022/05/09 10:36:01;;;;;;;1.55;1.55;;;31.10;67.80;;;;;;5067951;28;20190;-46
2022/05/09 10:38:39;;;;;;;1.58;1.58;;;31.70;65.60;;;;;;5067809;28;20213;-54
2022/05/09 10:41:29;;;;;;;2.08;1.98;;;31.10;69.00;;;;;;5065787;28;20233;-54
2022/05/09 10:44:01;;;;;;;2.10;2.00;;;30.30;68.20;;;;;;5068934;28;20189;-52
2022/05/09 10:46:42;;;;;;;2.35;2.10;;;31.60;65.50;;;;;;5067326;28;20178;-58
2022/05/09 10:49:26;;;;;;;1.75;1.65;;;31.70;63.30;;;;;;5067129;28;20190;-56
2022/05/09 10:52:18;;;;;;;1.77;1.67;;;31.70;64.90;;;;;;5067426;28;20196;-56
2022/05/09 10:54:44;;;;;;;2.40;2.20;;;31.90;63.20;;;;;;5060253;28;20273;-57
2022/05/09 10:57:29;;;;;;;3.65;1.70;;;31.10;64.90;;;;;;5067609;28;20300;-59
2022/05/09 11:00:03;;;;;;;1.58;1.58;;;32.70;64.60;;;;;;5048933;28;20182;-57
2022/05/09 11:02:37;;;;;;;2.13;2.03;;;32.70;63.40;;;;;;5054357;28;20181;-51
2022/05/09 11:05:04;;;;;;;1.83;1.73;;;31.30;64.90;;;;;;5068115;28;20186;-54
2022/05/09 11:07:38;;;;;;;1.50;1.50;;;31.10;63.20;;;;;;5064342;28;20225;-54
2022/05/09 11:10:17;;;;;;;1.90;1.80;;;32.00;60.90;;;;;;5068404;28;20185;-50
2022/05/09 11:13:06;;;;;;;2.10;2.00;;;33.80;59.60;;;;;;5067432;28;20266;-58
2022/05/09 11:16:06;;;;;;;3.08;2.67;;;33.30;59.50;;;;;;5045664;28;20210;-51
2022/05/09 11:19:04;;;;;;;2.17;1.98;;;33.40;61.00;;;;;;5055608;28;20209;-48
2022/05/09 11:21:53;;;;;;;2.15;2.05;;;33.50;59.80;;;;;;5056835;28;20200;-53
2022/05/09 11:24:21;;;;;;;1.80;1.80;;;33.60;58.50;;;;;;5046295;28;20210;-53
2022/05/09 11:27:19;;;;;;;2.10;2.00;;;33.70;58.90;;;;;;5058519;28;20193;-52
2022/05/09 11:29:54;;;;;;;1.75;1.75;;;33.30;58.30;;;;;;5067703;28;20189;-50
2022/05/09 11:32:38;;;;;;;2.47;2.28;;;32.70;59.00;;;;;;5066411;28;20187;-51
2022/05/09 11:35:25;;;;;;;2.13;2.03;;;29.20;63.00;;;;;;5068994;28;20198;-53
2022/05/09 11:38:14;;;;;;;2.05;1.95;;;28.70;65.00;;;;;;5065877;28;20304;-50
2022/05/09 11:40:45;;;;;;;1.80;1.70;;;29.90;65.00;;;;;;5067184;28;20189;-46
2022/05/09 11:43:32;;;;;;;1.60;1.60;;;31.70;61.40;;;;;;5068016;28;20634;-54
2022/05/09 11:46:07;;;;;;;1.75;1.63;;;31.40;62.40;;;;;;5064361;28;20177;-50
2022/05/09 11:48:35;;;;;;;2.38;2.28;;;32.60;60.10;;;;;;5067233;28;20181;-53
2022/05/09 11:51:10;;;;;;;2.10;2.00;;;33.00;59.40;;;;;;5083536;28;20644;-54
2022/05/09 11:53:43;;;;;;;1.70;1.60;;;34.30;59.00;;;;;;5083150;28;20227;-51
2022/05/09 11:56:09;;;;;;;1.75;1.65;;;33.90;57.40;;;;;;5065279;28;20200;-57
2022/05/09 11:58:38;;;;;;;1.67;1.60;;;34.10;57.80;;;;;;5080651;28;20280;-51
2022/05/09 12:01:05;;;;;;;1.90;1.80;;;33.50;58.80;;;;;;5067573;28;20186;-50
2022/05/09 12:03:51;;;;;;;1.98;1.88;;;31.70;61.30;;;;;;5065257;28;20202;-56
2022/05/09 12:06:36;;;;;;;2.05;1.95;;;30.20;62.50;;;;;;5083068;28;20213;-54
2022/05/09 12:09:11;;;;;;;2.00;1.90;;;30.30;62.30;;;;;;5067538;28;20246;-54
2022/05/09 12:11:46;;;;;;;2.30;2.20;;;28.10;65.00;;;;;;5064146;28;20193;-50
2022/05/09 12:14:42;;;;;;;2.03;1.92;;;27.60;67.10;;;;;;5084668;28;20274;-48
2022/05/09 12:17:32;;;;;;;3.58;2.00;;;27.50;67.70;;;;;;5066678;28;20221;-54
2022/05/09 12:19:57;;;;;;;1.95;1.85;;;26.70;66.20;;;;;;5065114;28;20193;-52
2022/05/09 12:22:23;;;;;;;1.58;1.48;;;25.90;68.00;;;;;;5068495;28;20193;-52
2022/05/09 12:24:49;;;;;;;1.38;1.33;;;25.70;67.50;;;;;;5064588;28;20182;-55
2022/05/09 12:27:41;;;;;;;2.17;2.03;;;25.50;69.10;;;;;;5067695;28;20194;-56
2022/05/09 12:30:31;;;;;;;1.75;1.63;;;25.20;69.90;;;;;;5066519;28;20288;-46
2022/05/09 12:32:57;;;;;;;2.28;2.08;;;25.10;70.80;;;;;;5063546;28;20212;-43
2022/05/09 12:35:23;;;;;;;2.40;2.20;;;24.40;72.70;;;;;;5067494;28;20246;-56
2022/05/09 12:37:50;;;;;;;2.17;2.05;;;24.20;74.20;;;;;;5064346;28;20218;-56
2022/05/09 12:40:21;;;;;;;2.00;1.90;;;24.00;75.50;;;;;;5067335;28;20310;-53
2022/05/09 12:42:53;;;;;;;1.63;1.63;;;23.70;77.20;;;;;;5066000;28;20194;-57
2022/05/09 12:45:19;;;;;;;1.92;1.80;;;23.60;78.60;;;;;;5065816;28;20231;-50
2022/05/09 12:47:47;;;;;;;1.85;1.70;;;23.30;83.80;;;;;;5066583;28;20193;-58
2022/05/09 12:50:24;;;;;;;3.90;1.90;;;22.80;86.70;;;;;;5064748;28;20245;-55
2022/05/09 12:52:59;;;;;;;2.28;1.90;;;22.90;86.70;;;;;;5062726;28;20572;-56
2022/05/09 12:55:55;;;;;;;1.45;1.40;;;22.80;87.10;;;;;;5063674;28;20185;-55
2022/05/09 12:58:33;;;;;;;1.90;1.80;;;22.50;87.70;;;;;;5056535;28;20241;-56
2022/05/09 13:01:31;;;;;;;2.72;1.60;;;22.30;87.40;;;;;;5056994;28;20186;-55
2022/05/09 13:04:03;;;;;;;1.20;1.15;;;22.40;87.00;;;;;;5062580;28;20213;-55
2022/05/09 13:06:40;;;;;;;2.03;1.42;;;22.50;85.60;;;;;;5070090;28;20225;-52
2022/05/09 13:09:14;;;;;;;1.17;1.17;;;22.40;85.20;;;;;;5070111;28;20296;-53
2022/05/09 13:11:40;;;;;;;1.98;1.50;;;22.50;85.50;;;;;;5068630;28;20191;-52
2022/05/09 13:14:22;;;;;;;1.65;1.48;;;22.20;84.10;;;;;;5070572;28;20251;-47
2022/05/09 13:16:55;;;;;;;1.40;1.10;;;22.30;84.40;;;;;;5067832;28;20193;-50
2022/05/09 13:19:21;;;;;;;1.20;1.20;;;22.10;85.30;;;;;;5069835;28;20182;-47